Time;durP1;ratioP1;P1;durP2;ratioP2;P2;SDS_P1;SDS_P2;PMS_P1;PMS_P2;Temp;Humidity;BMP_temperature;BMP_pressure;BME280_temperature;BME280_humidity;BME280_pressure;Samples;Min_cycle;Max_cycle;Signal;HPM_P1;HPM_P2
2022/12/15 00:40:38;;;;;;;32.55;14.68;;;0.60;99.90;;;;;;5083046;28;20079;-60
2022/12/15 00:43:05;;;;;;;33.55;14.45;;;0.70;99.90;;;;;;5081058;28;20032;-60
2022/12/15 00:48:17;;;;;;;40.28;16.90;;;0.70;99.90;;;;;;5084534;28;19964;-60
2022/12/15 00:50:53;;;;;;;39.33;17.17;;;0.60;99.90;;;;;;5074759;28;20056;-60
2022/12/15 01:21:04;;;;;;;32.17;14.57;;;0.70;99.90;;;;;;5092523;28;20442;-60
2022/12/15 01:23:31;;;;;;;34.70;15.15;;;0.70;99.90;;;;;;5093618;28;20044;-60
2022/12/15 01:25:59;;;;;;;32.13;15.77;;;0.70;99.90;;;;;;5090933;28;20046;-61
2022/12/15 01:28:26;;;;;;;32.00;15.88;;;0.80;99.90;;;;;;5073851;28;20047;-60
2022/12/15 01:30:52;;;;;;;39.08;16.23;;;0.70;99.90;;;;;;5072766;28;20079;-61
2022/12/15 01:33:20;;;;;;;28.73;13.95;;;0.70;99.90;;;;;;5073255;28;20070;-61
2022/12/15 01:35:58;;;;;;;27.38;13.88;;;0.80;99.90;;;;;;5072265;28;20064;-61
2022/12/15 01:38:26;;;;;;;36.25;13.68;;;0.80;99.90;;;;;;5060644;28;20439;-60
2022/12/15 01:41:08;;;;;;;30.80;13.48;;;0.90;99.90;;;;;;5062157;28;20068;-60
2022/12/15 01:43:37;;;;;;;31.85;14.88;;;0.80;99.90;;;;;;5073294;28;20447;-61
2022/12/15 01:46:09;;;;;;;27.42;12.30;;;0.80;99.90;;;;;;5073199;28;20047;-60
2022/12/15 01:48:44;;;;;;;26.85;11.35;;;0.90;99.90;;;;;;5073311;28;20083;-61
2022/12/15 01:51:33;;;;;;;23.92;11.75;;;0.90;99.90;;;;;;5092469;28;20068;-60
2022/12/15 01:54:15;;;;;;;26.65;10.32;;;1.00;99.90;;;;;;5092686;28;20048;-60
2022/12/15 01:56:45;;;;;;;20.60;10.50;;;1.00;99.90;;;;;;5092506;28;20075;-60
2022/12/15 01:59:15;;;;;;;19.67;10.68;;;1.00;99.90;;;;;;5074134;28;20086;-60
2022/12/15 02:01:42;;;;;;;21.52;9.95;;;1.10;99.90;;;;;;5076307;28;20094;-60
2022/12/15 02:04:18;;;;;;;21.58;10.57;;;1.10;99.90;;;;;;5074961;28;20629;-60
2022/12/15 02:06:45;;;;;;;23.88;10.20;;;1.10;99.90;;;;;;5077035;28;20070;-61
2022/12/15 02:09:11;;;;;;;16.90;10.48;;;1.20;99.90;;;;;;5072143;28;20041;-60
2022/12/15 02:11:48;;;;;;;24.58;11.85;;;1.10;99.90;;;;;;5071683;28;20090;-60
2022/12/15 02:14:30;;;;;;;25.55;11.55;;;1.10;99.90;;;;;;5071884;28;20076;-60
2022/12/15 02:17:28;;;;;;;24.02;11.48;;;1.10;99.90;;;;;;5073593;28;20501;-60
2022/12/15 02:20:13;;;;;;;20.85;11.25;;;1.10;99.90;;;;;;5084624;28;20079;-60
2022/12/15 02:23:12;;;;;;;29.90;12.75;;;1.10;99.90;;;;;;5092336;28;20044;-61
2022/12/15 02:25:41;;;;;;;29.90;12.82;;;1.00;99.90;;;;;;5085153;28;20041;-60
2022/12/15 02:28:29;;;;;;;26.83;11.95;;;1.00;99.90;;;;;;5072179;28;20106;-61
2022/12/15 02:34:18;;;;;;;26.75;11.95;;;0.90;99.90;;;;;;5079124;28;20131;-61
2022/12/15 02:36:49;;;;;;;31.27;13.15;;;0.90;99.90;;;;;;5072343;28;20086;-60
2022/12/15 02:39:17;;;;;;;29.50;12.85;;;0.90;99.90;;;;;;5071895;28;20125;-60
2022/12/15 02:41:46;;;;;;;30.77;12.38;;;0.90;99.90;;;;;;5081076;28;20040;-60
2022/12/15 02:44:19;;;;;;;29.15;12.20;;;0.90;99.90;;;;;;5092198;28;20040;-60
2022/12/15 02:47:03;;;;;;;28.83;11.38;;;0.80;99.90;;;;;;5092758;28;20067;-60
2022/12/15 02:49:57;;;;;;;27.15;13.05;;;0.80;99.90;;;;;;5090666;28;20078;-60
2022/12/15 02:52:29;;;;;;;25.98;12.20;;;0.90;99.90;;;;;;5047219;28;20678;-60
2022/12/15 02:55:27;;;;;;;25.75;11.70;;;1.00;99.90;;;;;;5071558;28;20041;-61
2022/12/15 02:58:07;;;;;;;28.08;12.30;;;1.00;99.90;;;;;;5071023;28;20048;-60
2022/12/15 03:00:39;;;;;;;24.52;11.70;;;1.10;99.90;;;;;;5071878;28;20037;-60
2022/12/15 03:03:07;;;;;;;27.00;12.60;;;1.00;99.90;;;;;;5080205;28;20131;-60
2022/12/15 03:05:34;;;;;;;;;;;1.10;99.90;;;;;;5086776;28;20492;-60
2022/12/15 03:08:01;;;;;;;22.73;11.13;;;1.10;99.90;;;;;;5091868;28;19977;-61
2022/12/15 03:10:27;;;;;;;24.05;12.15;;;1.10;99.90;;;;;;5074498;28;20492;-61
2022/12/15 03:12:54;;;;;;;26.83;11.10;;;1.10;99.90;;;;;;5071458;28;20117;-61
2022/12/15 03:15:21;;;;;;;22.92;11.30;;;1.10;99.90;;;;;;5071366;28;20072;-61
2022/12/15 03:17:48;;;;;;;26.33;12.70;;;1.20;99.90;;;;;;5071598;28;20086;-60
2022/12/15 03:20:15;;;;;;;22.73;11.88;;;1.20;99.90;;;;;;5087032;28;20064;-61
2022/12/15 03:22:41;;;;;;;23.13;8.95;;;1.10;99.90;;;;;;5101320;22;20050;-64
2022/12/15 03:25:08;;;;;;;16.85;8.23;;;1.10;99.90;;;;;;5080352;28;20133;-64
2022/12/15 03:27:36;;;;;;;23.08;11.43;;;1.10;99.90;;;;;;5071232;28;20037;-64
2022/12/15 03:30:04;;;;;;;24.85;11.77;;;1.10;99.90;;;;;;5089592;28;20044;-64
2022/12/15 03:32:31;;;;;;;23.90;11.13;;;1.10;99.90;;;;;;5091315;28;20048;-64
2022/12/15 03:34:58;;;;;;;16.00;8.15;;;1.00;99.90;;;;;;5086041;28;20044;-64
2022/12/15 03:37:24;;;;;;;23.25;11.40;;;1.00;99.90;;;;;;5078288;28;20106;-64
2022/12/15 03:39:51;;;;;;;22.60;12.07;;;1.00;99.90;;;;;;5079101;28;20075;-64
2022/12/15 03:42:47;;;;;;;15.07;7.93;;;1.00;99.90;;;;;;5089476;28;20104;-64
2022/12/15 03:45:05;;;;;;;26.95;11.98;;;1.00;99.90;;;;;;5082777;28;20044;-64
2022/12/15 03:47:32;;;;;;;29.00;12.52;;;1.00;99.90;;;;;;5072712;28;20075;-64
2022/12/15 03:49:58;;;;;;;24.58;11.70;;;1.10;99.90;;;;;;5089590;28;20078;-64
2022/12/15 03:52:25;;;;;;;22.42;11.77;;;1.00;99.90;;;;;;5077547;28;20102;-64
2022/12/15 03:54:52;;;;;;;18.42;8.85;;;1.10;99.90;;;;;;5088032;28;20052;-64
2022/12/15 03:57:18;;;;;;;17.83;8.75;;;1.10;99.90;;;;;;5091527;28;20379;-64
2022/12/15 03:59:45;;;;;;;16.85;8.15;;;1.10;99.90;;;;;;5081941;28;20044;-64
2022/12/15 04:02:12;;;;;;;26.90;13.80;;;1.10;99.90;;;;;;5070628;28;20040;-64
2022/12/15 04:04:39;;;;;;;27.67;12.60;;;1.10;99.90;;;;;;5070792;28;20409;-64
2022/12/15 04:07:06;;;;;;;20.30;8.98;;;1.10;99.90;;;;;;5074634;28;20161;-64
2022/12/15 04:09:32;;;;;;;28.75;11.38;;;1.10;99.90;;;;;;5070901;28;20497;-64
2022/12/15 04:12:02;;;;;;;18.45;9.27;;;1.10;99.90;;;;;;5070514;28;20072;-64
2022/12/15 04:14:29;;;;;;;33.40;12.05;;;1.10;99.90;;;;;;5069457;28;20106;-64
2022/12/15 04:16:55;;;;;;;28.50;13.43;;;1.10;99.90;;;;;;5077118;28;20493;-64
2022/12/15 04:22:08;;;;;;;22.00;11.63;;;1.10;99.90;;;;;;5086582;28;20105;-64
2022/12/15 05:33:58;;;;;;;41.28;14.35;;;1.20;99.90;;;;;;5092940;28;20119;-64
2022/12/15 05:36:31;;;;;;;36.03;13.75;;;1.20;99.90;;;;;;5086056;28;20137;-64
2022/12/15 05:38:57;;;;;;;31.25;11.10;;;1.20;99.90;;;;;;5072426;28;20041;-64
2022/12/15 05:41:24;;;;;;;34.47;11.43;;;1.20;99.90;;;;;;5075955;28;20044;-65
2022/12/15 05:43:51;;;;;;;49.83;16.27;;;1.20;99.90;;;;;;5072677;28;20070;-65
2022/12/15 05:46:18;;;;;;;30.25;11.13;;;1.20;99.90;;;;;;5090266;28;20074;-65
2022/12/15 05:48:45;;;;;;;33.63;14.05;;;1.20;99.90;;;;;;5085766;28;20048;-65
2022/12/15 05:51:12;;;;;;;35.60;14.82;;;1.20;99.90;;;;;;5072155;28;20075;-65
2022/12/15 05:53:41;;;;;;;59.42;15.38;;;1.20;99.90;;;;;;5072917;28;20041;-65
2022/12/15 05:56:11;;;;;;;44.05;15.48;;;1.20;99.90;;;;;;5089951;28;20105;-65
2022/12/15 05:58:38;;;;;;;39.70;14.82;;;1.20;99.90;;;;;;5085677;28;20492;-64
2022/12/15 06:01:15;;;;;;;46.13;15.45;;;1.10;99.90;;;;;;5091186;28;20086;-64
2022/12/15 06:03:41;;;;;;;42.30;14.90;;;1.20;99.90;;;;;;5086391;28;20094;-64
2022/12/15 06:06:10;;;;;;;46.83;15.40;;;1.20;99.90;;;;;;5081240;28;20083;-64
2022/12/15 06:08:38;;;;;;;62.50;16.67;;;1.20;99.90;;;;;;5083582;28;20070;-65
2022/12/15 06:11:06;;;;;;;39.97;14.73;;;1.20;99.90;;;;;;5084953;28;20040;-64
2022/12/15 06:13:33;;;;;;;46.65;15.43;;;1.20;99.90;;;;;;5086860;28;20079;-64
2022/12/15 06:16:06;;;;;;;39.92;14.90;;;1.20;99.90;;;;;;5092953;28;20040;-64
2022/12/15 06:18:36;;;;;;;40.08;14.63;;;1.20;99.90;;;;;;5092314;28;20051;-64
2022/12/15 06:21:16;;;;;;;40.75;14.60;;;1.30;99.90;;;;;;5084366;28;20113;-65
2022/12/15 06:23:44;;;;;;;41.75;15.75;;;1.30;99.90;;;;;;5072371;28;20451;-64
2022/12/15 06:26:19;;;;;;;47.30;15.50;;;1.30;99.90;;;;;;5073263;28;20044;-64
2022/12/15 06:28:47;;;;;;;50.42;14.85;;;1.30;99.90;;;;;;5092744;28;20057;-64
2022/12/15 06:31:15;;;;;;;37.15;15.27;;;1.30;99.90;;;;;;5091754;28;20040;-64
2022/12/15 06:33:42;;;;;;;38.95;14.23;;;1.30;99.90;;;;;;5091759;28;20040;-65
2022/12/15 06:36:12;;;;;;;57.00;15.95;;;1.30;99.90;;;;;;5089607;28;20095;-64
2022/12/15 06:38:42;;;;;;;40.85;14.70;;;1.30;99.90;;;;;;5086809;28;20040;-64
2022/12/15 06:41:11;;;;;;;43.45;14.57;;;1.30;99.90;;;;;;5084129;28;20053;-64
2022/12/15 06:43:38;;;;;;;39.90;15.60;;;1.20;99.90;;;;;;5092130;28;20047;-64
2022/12/15 06:46:05;;;;;;;33.95;14.52;;;1.30;99.90;;;;;;5089253;28;20507;-65
2022/12/15 06:48:32;;;;;;;;;;;1.30;99.90;;;;;;5072454;28;20064;-64
2022/12/15 06:51:06;;;;;;;32.85;14.15;;;1.30;99.90;;;;;;5071609;28;19932;-64
2022/12/15 06:53:52;;;;;;;36.15;14.90;;;1.30;99.90;;;;;;5074213;28;20051;-64
2022/12/15 06:56:31;;;;;;;35.80;11.63;;;1.30;99.90;;;;;;5062094;28;20040;-64
2022/12/15 06:59:02;;;;;;;47.83;14.82;;;1.30;99.90;;;;;;5069758;28;20283;-64
2022/12/15 07:01:29;;;;;;;43.25;15.35;;;1.30;99.90;;;;;;5071081;28;20044;-64
2022/12/15 07:04:01;;;;;;;35.00;14.52;;;1.30;99.90;;;;;;5071141;28;20041;-64
2022/12/15 07:06:36;;;;;;;33.38;14.70;;;1.40;99.90;;;;;;5071887;28;20477;-64
2022/12/15 07:09:06;;;;;;;44.85;14.68;;;1.40;99.90;;;;;;5071915;28;20044;-64
2022/12/15 07:11:32;;;;;;;33.17;15.05;;;1.40;99.90;;;;;;5068814;28;20119;-64
2022/12/15 07:13:59;;;;;;;45.03;14.80;;;1.40;99.90;;;;;;5072362;28;20040;-64
2022/12/15 07:16:26;;;;;;;28.17;13.27;;;1.50;99.90;;;;;;5089966;28;20040;-64
2022/12/15 07:18:53;;;;;;;36.72;16.50;;;1.50;99.90;;;;;;5074821;28;20049;-64
2022/12/15 07:21:19;;;;;;;23.80;11.13;;;1.50;99.90;;;;;;5071443;28;20048;-64
2022/12/15 07:23:46;;;;;;;24.88;11.35;;;1.50;99.90;;;;;;5071847;28;20075;-64
2022/12/15 07:26:23;;;;;;;37.65;14.20;;;1.50;99.90;;;;;;5079303;28;20040;-64
2022/12/15 07:28:49;;;;;;;;;;;1.50;99.90;;;;;;5071881;28;20546;-64
2022/12/15 07:31:16;;;;;;;32.95;14.43;;;1.50;99.90;;;;;;5071025;28;19963;-64
2022/12/15 07:33:44;;;;;;;41.92;15.52;;;1.50;99.90;;;;;;5076938;28;20037;-64
2022/12/15 07:36:11;;;;;;;43.78;16.73;;;1.50;99.90;;;;;;5071455;28;20119;-64
2022/12/15 07:38:37;;;;;;;43.78;17.95;;;1.50;99.90;;;;;;5077691;28;20040;-64
2022/12/15 07:41:06;;;;;;;45.03;17.02;;;1.40;99.90;;;;;;5081863;28;20450;-64
2022/12/15 07:43:33;;;;;;;38.20;15.63;;;1.40;99.90;;;;;;5070636;28;20048;-64
2022/12/15 07:46:02;;;;;;;43.28;16.75;;;1.30;99.90;;;;;;5070774;28;20432;-64
2022/12/15 07:48:29;;;;;;;301.48;30.58;;;1.30;99.90;;;;;;5071309;28;20493;-64
2022/12/15 07:50:56;;;;;;;146.75;21.08;;;1.20;99.90;;;;;;5079438;28;20332;-64
2022/12/15 07:53:33;;;;;;;60.65;21.08;;;1.20;99.90;;;;;;5070457;28;20076;-64
2022/12/15 07:56:03;;;;;;;64.97;19.58;;;1.20;99.90;;;;;;5070874;28;20550;-64
2022/12/15 07:58:36;;;;;;;90.22;23.52;;;1.20;99.90;;;;;;5071110;28;20047;-64
2022/12/15 08:01:05;;;;;;;156.65;24.90;;;1.20;99.90;;;;;;5070037;28;20135;-64
2022/12/15 08:03:33;;;;;;;87.35;22.33;;;1.10;99.90;;;;;;5070873;28;20047;-64
2022/12/15 08:06:10;;;;;;;71.90;22.20;;;1.10;99.90;;;;;;5076292;28;20112;-64
2022/12/15 08:08:37;;;;;;;53.22;20.27;;;1.10;99.90;;;;;;5070783;28;20437;-64
2022/12/15 08:11:10;;;;;;;92.40;23.95;;;1.00;99.90;;;;;;5073782;28;20070;-64
2022/12/15 08:13:38;;;;;;;60.83;23.00;;;1.10;99.90;;;;;;5074418;28;20037;-64
2022/12/15 08:16:25;;;;;;;43.88;16.67;;;1.00;99.90;;;;;;5074555;28;20119;-64
2022/12/15 08:18:52;;;;;;;62.00;21.65;;;1.10;99.90;;;;;;5088067;28;20036;-64
2022/12/15 08:21:19;;;;;;;;;;;1.10;99.90;;;;;;5087282;28;20226;-64
2022/12/15 08:23:46;;;;;;;59.28;22.70;;;1.10;99.90;;;;;;5082710;28;20288;-64
2022/12/15 08:26:15;;;;;;;63.85;22.88;;;1.10;99.90;;;;;;5074772;28;20501;-64
2022/12/15 08:28:43;;;;;;;86.82;23.83;;;1.10;99.90;;;;;;5076438;28;20048;-64
2022/12/15 08:31:15;;;;;;;61.40;23.27;;;1.20;99.90;;;;;;5075829;28;20044;-64
2022/12/15 08:33:43;;;;;;;61.65;23.90;;;1.10;99.90;;;;;;5062277;28;20062;-64
2022/12/15 08:36:12;;;;;;;78.80;23.35;;;1.20;99.90;;;;;;5086353;28;20039;-64
2022/12/15 08:38:40;;;;;;;62.92;24.20;;;1.30;99.90;;;;;;5094661;28;20043;-64
2022/12/15 08:41:12;;;;;;;65.05;23.55;;;1.40;99.90;;;;;;5092909;28;20697;-64
2022/12/15 08:43:39;;;;;;;74.18;23.52;;;1.50;99.90;;;;;;5082766;28;20055;-64
2022/12/15 08:46:15;;;;;;;76.95;24.23;;;1.50;99.90;;;;;;5084565;28;20048;-64
2022/12/15 08:48:42;;;;;;;66.22;23.95;;;1.60;99.90;;;;;;5075934;28;20519;-64
2022/12/15 08:51:09;;;;;;;66.32;24.30;;;1.60;99.90;;;;;;5094144;28;20051;-64
2022/12/15 08:53:36;;;;;;;63.47;22.48;;;1.70;99.90;;;;;;5085380;28;20033;-64
2022/12/15 08:56:08;;;;;;;46.88;16.33;;;1.70;99.90;;;;;;5073918;28;20076;-64
2022/12/15 08:58:35;;;;;;;66.65;22.00;;;1.60;99.90;;;;;;5073235;28;20063;-64
2022/12/15 09:01:08;;;;;;;66.03;23.90;;;1.60;99.90;;;;;;5078684;28;20074;-64
2022/12/15 09:03:35;;;;;;;70.28;23.52;;;1.60;99.90;;;;;;5072700;28;20071;-64
2022/12/15 09:06:10;;;;;;;59.85;22.63;;;1.50;99.90;;;;;;5072855;28;20041;-64
2022/12/15 09:08:36;;;;;;;80.53;25.55;;;1.50;99.90;;;;;;5074173;28;20075;-64
2022/12/15 09:11:06;;;;;;;57.78;18.67;;;1.50;99.90;;;;;;5078476;28;20129;-64
2022/12/15 09:13:33;;;;;;;89.18;26.38;;;1.40;99.90;;;;;;5072283;28;20064;-64
2022/12/15 09:16:06;;;;;;;64.15;23.42;;;1.40;99.90;;;;;;5073757;28;20177;-64
2022/12/15 09:18:36;;;;;;;74.15;23.70;;;1.40;99.90;;;;;;5076363;28;20040;-64
2022/12/15 09:21:05;;;;;;;59.95;23.42;;;1.40;99.90;;;;;;5069163;28;20131;-64
2022/12/15 09:23:32;;;;;;;71.40;26.10;;;1.40;99.90;;;;;;5093872;22;20071;-61
2022/12/15 09:26:08;;;;;;;67.25;25.70;;;1.40;99.90;;;;;;5099128;28;20425;-61
2022/12/15 09:28:36;;;;;;;63.63;24.88;;;1.40;99.90;;;;;;5114318;28;20089;-61
2022/12/15 09:31:15;;;;;;;68.63;26.00;;;1.40;99.90;;;;;;5113271;28;20047;-61
2022/12/15 09:33:42;;;;;;;63.35;26.08;;;1.40;99.90;;;;;;5113881;28;20085;-61
2022/12/15 09:36:11;;;;;;;78.47;25.85;;;1.40;99.90;;;;;;5091626;28;20090;-60
2022/12/15 09:38:40;;;;;;;57.72;24.40;;;1.50;99.90;;;;;;5083136;28;20037;-61
2022/12/15 09:41:14;;;;;;;68.00;24.00;;;1.50;99.90;;;;;;5085258;28;20052;-61
2022/12/15 09:43:51;;;;;;;72.68;28.27;;;1.60;99.90;;;;;;5113492;28;20039;-61
2022/12/15 09:46:29;;;;;;;47.23;19.47;;;1.70;99.90;;;;;;5113873;28;20118;-60
2022/12/15 09:49:00;;;;;;;65.22;25.27;;;1.70;99.90;;;;;;5114245;28;20522;-61
2022/12/15 09:51:39;;;;;;;65.30;26.23;;;1.80;99.90;;;;;;5103225;28;20490;-60
2022/12/15 09:54:09;;;;;;;66.07;25.40;;;1.90;99.90;;;;;;5085376;28;20374;-61
2022/12/15 09:56:44;;;;;;;67.15;25.85;;;1.90;99.90;;;;;;5092919;28;20032;-61
2022/12/15 09:59:49;;;;;;;62.03;25.52;;;2.00;99.90;;;;;;5099249;28;20115;-61
2022/12/15 10:02:57;;;;;;;59.88;24.67;;;2.10;99.90;;;;;;5112770;28;20560;-61
2022/12/15 10:05:43;;;;;;;59.53;25.00;;;2.10;99.90;;;;;;5101037;28;20040;-61
2022/12/15 10:08:34;;;;;;;57.97;23.77;;;2.10;99.90;;;;;;5100306;28;20123;-61
2022/12/15 10:11:16;;;;;;;61.28;23.13;;;2.10;99.90;;;;;;5110624;28;20529;-61
2022/12/15 10:13:57;;;;;;;56.85;23.02;;;2.20;99.90;;;;;;5108723;28;20032;-61
2022/12/15 10:16:43;;;;;;;56.78;23.15;;;2.30;99.90;;;;;;5112232;28;20071;-61
2022/12/15 10:19:30;;;;;;;70.63;23.13;;;2.30;99.90;;;;;;5112210;28;20122;-60
2022/12/15 10:21:57;;;;;;;57.03;21.23;;;2.40;99.90;;;;;;5098445;28;20101;-61
2022/12/15 10:24:27;;;;;;;;;;;2.50;99.90;;;;;;5113470;28;20039;-61
2022/12/15 10:27:34;;;;;;;51.88;21.27;;;2.50;99.90;;;;;;5113050;28;20006;-61
2022/12/15 10:30:02;;;;;;;60.03;23.23;;;2.60;99.90;;;;;;5108903;28;20104;-61
2022/12/15 10:32:46;;;;;;;54.70;21.05;;;2.70;99.90;;;;;;5112323;28;20039;-61
2022/12/15 10:35:17;;;;;;;56.15;21.92;;;2.70;99.90;;;;;;5112468;28;20467;-60
2022/12/15 10:37:43;;;;;;;55.95;22.33;;;2.70;99.90;;;;;;5110020;28;20048;-61
2022/12/15 10:40:17;;;;;;;60.17;23.13;;;2.80;99.90;;;;;;5083156;28;20492;-61
2022/12/15 10:42:49;;;;;;;53.67;22.02;;;2.90;99.90;;;;;;5097555;28;20117;-61
2022/12/15 10:45:38;;;;;;;54.65;22.33;;;2.90;99.90;;;;;;5100010;28;20518;-61
2022/12/15 10:48:05;;;;;;;48.05;19.42;;;2.90;99.90;;;;;;5112384;28;20462;-60
2022/12/15 10:50:33;;;;;;;;;;;2.90;99.90;;;;;;5112184;28;20126;-60
2022/12/15 10:53:07;;;;;;;48.10;18.83;;;2.90;99.90;;;;;;5106121;28;19964;-61
2022/12/15 10:55:42;;;;;;;54.85;20.65;;;3.00;99.90;;;;;;5083610;28;20070;-61
2022/12/15 10:58:21;;;;;;;52.08;20.27;;;3.10;99.90;;;;;;5092396;28;20052;-61
2022/12/15 11:01:13;;;;;;;49.58;20.48;;;3.10;99.90;;;;;;5086009;28;20409;-61
2022/12/15 11:03:40;;;;;;;49.03;19.55;;;3.10;99.90;;;;;;5100835;28;20419;-61
2022/12/15 11:06:21;;;;;;;51.67;20.90;;;3.10;99.90;;;;;;5112347;28;20476;-60
2022/12/15 11:08:51;;;;;;;50.13;21.25;;;3.20;99.90;;;;;;5112363;28;20044;-61
2022/12/15 11:14:23;;;;;;;46.85;20.50;;;3.10;99.90;;;;;;5112198;28;20067;-61
2022/12/15 11:16:53;;;;;;;54.33;21.58;;;3.10;99.90;;;;;;5111945;28;20048;-61
2022/12/15 11:19:26;;;;;;;51.78;19.88;;;3.20;99.90;;;;;;5112144;28;20047;-61
2022/12/15 11:22:00;;;;;;;53.58;20.52;;;3.20;99.90;;;;;;5108544;28;20047;-61
2022/12/15 11:24:44;;;;;;;50.95;19.00;;;3.10;99.90;;;;;;5112010;28;20465;-61
2022/12/15 11:27:33;;;;;;;53.78;19.77;;;3.10;99.90;;;;;;5112195;28;20044;-61
2022/12/15 11:30:18;;;;;;;49.42;20.48;;;3.20;99.90;;;;;;5098803;28;20046;-61
2022/12/15 11:32:56;;;;;;;49.88;21.52;;;3.20;99.90;;;;;;5089347;28;20036;-61
2022/12/15 11:35:47;;;;;;;58.13;20.50;;;3.30;99.90;;;;;;5112080;28;20044;-60
2022/12/15 11:38:33;;;;;;;53.70;22.05;;;3.30;99.90;;;;;;5111352;28;20048;-60
2022/12/15 11:41:28;;;;;;;47.17;19.65;;;3.30;99.90;;;;;;5095036;28;20093;-61
2022/12/15 11:44:26;;;;;;;47.95;19.20;;;3.30;99.90;;;;;;5111283;28;20047;-61
2022/12/15 11:47:17;;;;;;;51.95;20.27;;;3.30;99.90;;;;;;5093245;28;20047;-61
2022/12/15 11:50:03;;;;;;;47.85;20.08;;;3.30;99.90;;;;;;5109732;28;20446;-60
2022/12/15 11:52:42;;;;;;;58.38;19.83;;;3.20;99.90;;;;;;5097594;28;20101;-61
2022/12/15 11:55:29;;;;;;;48.97;19.65;;;3.30;99.90;;;;;;5106302;28;20036;-61
2022/12/15 11:58:34;;;;;;;44.05;19.42;;;3.30;99.90;;;;;;5107233;28;20074;-60
2022/12/15 12:01:16;;;;;;;42.95;18.50;;;3.30;99.90;;;;;;5110153;28;20063;-60
2022/12/15 12:04:22;;;;;;;39.78;17.90;;;3.40;99.90;;;;;;5110895;28;20094;-61
2022/12/15 12:07:23;;;;;;;47.78;18.73;;;3.30;99.90;;;;;;5086604;28;20056;-60
2022/12/15 12:10:08;;;;;;;46.80;19.42;;;3.20;99.90;;;;;;5111134;28;20096;-61
2022/12/15 12:13:00;;;;;;;52.38;21.05;;;3.20;99.90;;;;;;5111246;28;20035;-61
2022/12/15 12:15:42;;;;;;;57.28;23.65;;;3.20;99.90;;;;;;5098183;28;20039;-61
2022/12/15 12:18:24;;;;;;;63.30;24.90;;;3.10;99.90;;;;;;5111367;28;20432;-61
2022/12/15 12:21:18;;;;;;;69.13;24.98;;;3.10;99.90;;;;;;5111419;28;20093;-61
2022/12/15 12:23:59;;;;;;;63.17;25.27;;;3.00;99.90;;;;;;5100648;28;20047;-60
2022/12/15 12:26:37;;;;;;;64.20;25.38;;;3.00;99.90;;;;;;5111452;28;20108;-61
2022/12/15 12:29:15;;;;;;;68.50;27.05;;;2.90;99.90;;;;;;5110219;28;20507;-61
2022/12/15 12:31:54;;;;;;;78.60;28.38;;;2.90;99.90;;;;;;5110786;28;20287;-60
2022/12/15 12:34:57;;;;;;;77.60;29.10;;;2.90;99.90;;;;;;5078615;28;20033;-61
2022/12/15 12:37:51;;;;;;;76.93;29.40;;;2.80;99.90;;;;;;5095787;28;20118;-61
2022/12/15 12:40:50;;;;;;;71.63;27.90;;;2.60;99.90;;;;;;5082930;28;20048;-61
2022/12/15 12:43:39;;;;;;;68.53;26.88;;;2.50;99.90;;;;;;5081553;28;20036;-60
2022/12/15 12:46:28;;;;;;;73.82;27.65;;;2.40;99.90;;;;;;5082449;28;20460;-60
2022/12/15 12:49:14;;;;;;;71.15;29.05;;;2.40;99.90;;;;;;5089188;28;20109;-61
2022/12/15 12:51:47;;;;;;;72.32;28.67;;;2.40;99.90;;;;;;5078078;28;20044;-60
2022/12/15 12:54:33;;;;;;;76.22;29.23;;;2.40;99.90;;;;;;5090225;28;20040;-60
2022/12/15 12:57:20;;;;;;;71.35;28.52;;;2.40;99.90;;;;;;5098146;28;20100;-61
2022/12/15 12:59:57;;;;;;;79.45;28.73;;;2.50;99.90;;;;;;5114616;28;20514;-60
2022/12/15 13:02:24;;;;;;;79.65;28.60;;;2.50;99.90;;;;;;5108829;28;20043;-61
2022/12/15 13:05:04;;;;;;;80.95;28.25;;;2.50;99.90;;;;;;5114311;28;20089;-61
2022/12/15 13:07:39;;;;;;;74.32;29.70;;;2.50;99.90;;;;;;5114116;28;20086;-61
2022/12/15 13:10:06;;;;;;;74.47;28.98;;;2.40;99.90;;;;;;5101021;28;20515;-60
2022/12/15 13:12:45;;;;;;;81.43;30.98;;;2.50;99.90;;;;;;5114146;28;20108;-60
2022/12/15 13:15:26;;;;;;;80.13;30.02;;;2.40;99.90;;;;;;5114541;28;20072;-61
2022/12/15 13:18:11;;;;;;;81.95;29.23;;;2.30;99.90;;;;;;5103676;28;20101;-61
2022/12/15 13:20:39;;;;;;;81.95;31.20;;;2.30;99.90;;;;;;5082423;28;20097;-61
2022/12/15 13:23:35;;;;;;;80.65;29.63;;;2.30;99.90;;;;;;5073419;28;20036;-60
2022/12/15 13:26:03;;;;;;;78.72;29.13;;;2.20;99.90;;;;;;5091593;28;20404;-61
2022/12/15 13:28:38;;;;;;;56.65;20.70;;;2.10;99.90;;;;;;5114399;28;20051;-60
2022/12/15 13:31:17;;;;;;;80.18;28.58;;;2.00;99.90;;;;;;5113856;28;20108;-60
2022/12/15 13:33:51;;;;;;;77.05;27.92;;;1.90;99.90;;;;;;5103725;28;20520;-61
2022/12/15 13:36:36;;;;;;;92.00;30.40;;;1.90;99.90;;;;;;5085586;28;20493;-61
2022/12/15 13:39:16;;;;;;;91.75;32.17;;;1.80;99.90;;;;;;5093549;28;20070;-61
2022/12/15 13:41:45;;;;;;;95.80;31.77;;;1.80;99.90;;;;;;5084934;28;20068;-60
2022/12/15 13:44:38;;;;;;;89.30;31.55;;;1.70;99.90;;;;;;5086954;28;20054;-61
2022/12/15 13:47:18;;;;;;;86.38;32.47;;;1.60;99.90;;;;;;5100297;28;20097;-60
2022/12/15 13:50:00;;;;;;;106.72;34.90;;;1.70;99.90;;;;;;5113799;28;20051;-61
2022/12/15 13:52:42;;;;;;;98.50;35.13;;;1.70;99.90;;;;;;5110842;28;20040;-61
2022/12/15 13:55:45;;;;;;;98.15;33.33;;;1.70;99.90;;;;;;5099734;28;20050;-60
2022/12/15 13:58:18;;;;;;;100.90;33.45;;;1.70;99.90;;;;;;5099987;28;20128;-61
2022/12/15 14:00:54;;;;;;;95.57;32.88;;;1.70;99.90;;;;;;5087159;28;20442;-60
2022/12/15 14:03:21;;;;;;;102.40;32.70;;;1.70;99.90;;;;;;5112416;28;20052;-61
2022/12/15 14:05:54;;;;;;;97.00;35.00;;;1.70;99.90;;;;;;5112306;28;20043;-61
2022/12/15 14:08:23;;;;;;;94.82;33.10;;;1.70;99.90;;;;;;5092690;28;20043;-60
2022/12/15 14:10:58;;;;;;;95.75;35.22;;;1.70;99.90;;;;;;5102514;28;20048;-61
2022/12/15 14:13:28;;;;;;;95.28;33.15;;;1.60;99.90;;;;;;5097975;28;20233;-61
2022/12/15 14:16:03;;;;;;;84.85;30.95;;;1.60;99.90;;;;;;5094520;28;20093;-61
2022/12/15 14:18:36;;;;;;;84.82;31.02;;;1.60;99.90;;;;;;5113593;28;20043;-60
2022/12/15 14:21:18;;;;;;;88.15;30.40;;;1.60;99.90;;;;;;5104116;28;20099;-61
2022/12/15 14:23:45;;;;;;;93.15;30.75;;;1.60;99.90;;;;;;5084064;28;20043;-61
2022/12/15 14:26:32;;;;;;;90.90;32.90;;;1.60;99.90;;;;;;5092880;28;20403;-60
2022/12/15 14:29:02;;;;;;;63.85;23.15;;;1.60;99.90;;;;;;5093012;28;20040;-60
2022/12/15 14:31:29;;;;;;;88.68;30.85;;;1.50;99.90;;;;;;5067814;28;20036;-61
2022/12/15 14:34:07;;;;;;;94.07;30.55;;;1.50;99.90;;;;;;5106262;28;20088;-60
2022/12/15 14:36:34;;;;;;;96.22;32.83;;;1.50;99.90;;;;;;5112729;28;20092;-61
2022/12/15 14:39:23;;;;;;;99.97;32.15;;;1.50;99.90;;;;;;5094556;28;20097;-61
2022/12/15 14:41:51;;;;;;;103.53;34.88;;;1.40;99.90;;;;;;5089650;28;20036;-61
2022/12/15 14:44:43;;;;;;;107.32;33.50;;;1.30;99.90;;;;;;5111682;28;20100;-61
2022/12/15 14:47:25;;;;;;;107.07;34.38;;;1.30;99.90;;;;;;5081978;28;20450;-61
2022/12/15 14:49:54;;;;;;;112.97;36.08;;;1.20;99.90;;;;;;5092453;28;20572;-61
2022/12/15 14:52:31;;;;;;;108.68;35.88;;;1.20;99.90;;;;;;5091716;28;20105;-61
2022/12/15 14:55:01;;;;;;;116.10;34.83;;;1.20;99.90;;;;;;5091619;28;20035;-61
2022/12/15 14:57:44;;;;;;;112.18;36.00;;;1.20;99.90;;;;;;5099243;28;20047;-61
2022/12/15 15:00:50;;;;;;;107.72;34.50;;;1.10;99.90;;;;;;5083261;28;20079;-60
2022/12/15 15:03:39;;;;;;;109.57;35.33;;;1.10;99.90;;;;;;4970340;28;20527;-60
2022/12/15 15:06:17;;;;;;;111.03;35.97;;;1.10;99.90;;;;;;5070661;28;20040;-60
2022/12/15 15:08:49;;;;;;;114.45;36.42;;;1.10;99.90;;;;;;5078500;28;20056;-61
2022/12/15 15:11:25;;;;;;;118.38;38.50;;;1.00;99.90;;;;;;5094964;28;20047;-61
2022/12/15 15:14:04;;;;;;;110.78;35.58;;;1.00;99.90;;;;;;5112189;28;20039;-61
2022/12/15 15:16:31;;;;;;;109.60;36.75;;;1.00;99.90;;;;;;5112463;28;20035;-61
2022/12/15 15:19:00;;;;;;;114.70;35.67;;;1.00;99.90;;;;;;5080069;28;20044;-60
2022/12/15 15:21:29;;;;;;;106.43;36.13;;;1.00;99.90;;;;;;5111848;28;20035;-61
2022/12/15 15:24:18;;;;;;;112.97;38.35;;;1.10;99.90;;;;;;5124909;22;20410;-64
2022/12/15 15:26:45;;;;;;;110.38;36.42;;;1.10;99.90;;;;;;5091796;28;20075;-64
2022/12/15 15:29:37;;;;;;;115.10;37.35;;;1.10;99.90;;;;;;5109726;28;20101;-64
2022/12/15 15:32:05;;;;;;;114.57;36.35;;;1.20;99.90;;;;;;5110574;28;20117;-64
2022/12/15 15:34:32;;;;;;;94.65;33.30;;;1.20;99.90;;;;;;5097901;28;20105;-64
2022/12/15 15:37:01;;;;;;;109.60;36.38;;;1.20;99.90;;;;;;5108893;28;20047;-64
2022/12/15 15:39:28;;;;;;;110.25;36.33;;;1.20;99.90;;;;;;5111676;28;20484;-64
2022/12/15 15:41:55;;;;;;;165.85;52.30;;;1.10;99.90;;;;;;5090913;28;20075;-64
2022/12/15 15:44:21;;;;;;;117.35;36.78;;;1.10;99.90;;;;;;5095167;28;20426;-64